Time;durP1;ratioP1;P1;durP2;ratioP2;P2;SDS_P1;SDS_P2;PMS_P1;PMS_P2;Temp;Humidity;BMP_temperature;BMP_pressure;BME280_temperature;BME280_humidity;BME280_pressure;Samples;Min_cycle;Max_cycle;Signal;HPM_P1;HPM_P2
2023/07/11 00:01:15;;;;;;;4.18;1.70;;;;;;;24.74;27.95;101334.94;5051805;28;20079;-79
2023/07/11 00:03:43;;;;;;;2.92;1.75;;;;;;;24.72;27.88;101320.31;5049684;28;20049;-78
2023/07/11 00:06:17;;;;;;;3.00;1.63;;;;;;;24.72;28.20;101323.97;5052032;28;20069;-79
2023/07/11 00:08:45;;;;;;;3.40;1.75;;;;;;;24.67;27.84;101320.09;5059002;28;20052;-79
2023/07/11 00:11:17;;;;;;;3.70;1.88;;;;;;;24.66;28.04;101319.22;5061620;28;20044;-79
2023/07/11 00:13:45;;;;;;;;;;;;;;;24.34;28.56;101325.66;5073632;28;20060;-79
2023/07/11 00:16:15;;;;;;;2.55;1.55;;;;;;;24.58;27.99;101321.38;5051459;28;20379;-79
2023/07/11 00:18:43;;;;;;;3.47;1.83;;;;;;;24.58;27.89;101319.44;5055777;28;20465;-78
2023/07/11 00:21:11;;;;;;;2.90;1.77;;;;;;;24.57;28.14;101320.50;5047778;28;20037;-79
2023/07/11 00:23:42;;;;;;;3.10;1.40;;;;;;;24.55;28.49;101317.09;5039904;28;20049;-81
2023/07/11 00:26:09;;;;;;;4.57;1.92;;;;;;;24.49;28.07;101310.41;5057865;28;20068;-79
2023/07/11 00:28:37;;;;;;;3.25;1.60;;;;;;;24.46;28.40;101310.84;5055343;28;20076;-79
2023/07/11 00:31:06;;;;;;;3.03;1.80;;;;;;;24.44;28.24;101312.13;5077525;28;20049;-79
2023/07/11 00:33:36;;;;;;;3.83;1.75;;;;;;;24.38;28.27;101313.84;5054515;28;20056;-79
2023/07/11 00:36:06;;;;;;;3.10;1.73;;;;;;;24.37;28.33;101303.75;5051918;28;20037;-81
2023/07/11 00:38:35;;;;;;;3.65;2.00;;;;;;;24.34;28.43;101306.06;5043294;28;20050;-81
2023/07/11 00:41:08;;;;;;;3.95;1.90;;;;;;;24.34;28.63;101306.94;5055087;28;20068;-80
2023/07/11 00:43:36;;;;;;;4.60;1.80;;;;;;;24.27;28.76;101297.66;5044066;28;20064;-79
2023/07/11 00:46:13;;;;;;;3.33;1.70;;;;;;;24.27;28.96;101303.25;5044479;28;20119;-80
2023/07/11 00:48:45;;;;;;;3.75;1.77;;;;;;;24.22;28.66;101303.06;5064923;28;20033;-81
2023/07/11 00:51:15;;;;;;;;;;;;;;;23.90;29.08;101301.94;5048737;28;20079;-80
2023/07/11 00:53:44;;;;;;;4.43;1.70;;;;;;;24.12;28.69;101294.22;5064857;28;19979;-79
2023/07/11 00:56:17;;;;;;;2.85;1.73;;;;;;;24.15;28.78;101302.19;5046640;28;20036;-81
2023/07/11 00:58:46;;;;;;;3.00;1.73;;;;;;;24.12;28.74;101294.22;5061214;28;20515;-81
2023/07/11 01:01:16;;;;;;;3.38;1.70;;;;;;;24.09;28.96;101291.84;5049911;28;20271;-81
2023/07/11 01:03:47;;;;;;;3.67;1.70;;;;;;;24.05;28.65;101279.38;5042708;28;20064;-81
2023/07/11 01:06:19;;;;;;;2.97;1.55;;;;;;;24.05;28.85;101284.97;5044865;28;20052;-79
2023/07/11 01:08:49;;;;;;;4.18;1.70;;;;;;;23.99;28.93;101285.81;5061532;28;20096;-80
2023/07/11 01:11:19;;;;;;;3.22;1.77;;;;;;;24.00;28.88;101284.72;5047593;28;20581;-79
2023/07/11 01:13:46;;;;;;;3.72;1.67;;;;;;;23.96;28.91;101286.25;5064905;28;20547;-81
2023/07/11 01:16:15;;;;;;;3.28;1.90;;;;;;;23.92;28.96;101276.53;5044784;28;20057;-80
2023/07/11 01:18:44;;;;;;;3.33;1.60;;;;;;;23.91;29.10;101283.22;5043598;28;20384;-81
2023/07/11 01:21:17;;;;;;;2.45;1.52;;;;;;;23.91;29.19;101284.06;5054782;23;20132;-78
2023/07/11 01:23:45;;;;;;;3.25;1.90;;;;;;;23.84;29.15;101277.59;5032590;28;20053;-79
2023/07/11 01:26:16;;;;;;;3.70;2.05;;;;;;;23.83;29.01;101277.81;5031768;28;20408;-78
2023/07/11 01:28:46;;;;;;;3.92;2.05;;;;;;;23.79;29.19;101271.81;5033882;28;20041;-79
2023/07/11 01:31:14;;;;;;;2.60;1.60;;;;;;;23.76;29.14;101270.28;5034218;28;20049;-78
2023/07/11 01:33:42;;;;;;;3.15;1.55;;;;;;;23.74;29.32;101274.34;5029547;28;20128;-78
2023/07/11 01:36:10;;;;;;;2.92;1.60;;;;;;;23.73;29.41;101267.03;5024224;28;20132;-78
2023/07/11 01:38:39;;;;;;;3.08;1.75;;;;;;;23.73;29.27;101255.84;5022517;28;20044;-78
2023/07/11 01:41:09;;;;;;;2.80;1.45;;;;;;;23.70;29.38;101259.94;5028385;28;20041;-78
2023/07/11 01:43:37;;;;;;;2.90;1.48;;;;;;;23.69;29.38;101252.59;5033643;28;20061;-78
2023/07/11 01:46:06;;;;;;;2.72;1.80;;;;;;;23.67;29.27;101263.13;5044559;28;20049;-78
2023/07/11 01:48:34;;;;;;;3.38;1.70;;;;;;;23.65;29.34;101261.63;5023008;28;20045;-77
2023/07/11 01:51:02;;;;;;;3.95;1.75;;;;;;;23.64;29.13;101254.31;5028528;28;20059;-78
2023/07/11 01:53:30;;;;;;;4.05;1.88;;;;;;;23.62;29.40;101256.47;5028449;28;20046;-77
2023/07/11 01:56:03;;;;;;;3.50;1.70;;;;;;;23.62;29.28;101254.53;5030892;28;20038;-78
2023/07/11 01:58:33;;;;;;;3.75;2.00;;;;;;;23.59;29.20;101256.88;5028684;28;20076;-78
2023/07/11 02:01:01;;;;;;;3.70;1.73;;;;;;;23.55;29.36;101250.88;5031594;28;20043;-78
2023/07/11 02:03:29;;;;;;;2.60;1.58;;;;;;;23.53;29.35;101246.53;5031222;28;20052;-78
2023/07/11 02:05:57;;;;;;;3.75;1.73;;;;;;;23.50;29.67;101246.97;5031998;28;20049;-78
2023/07/11 02:08:26;;;;;;;3.95;1.77;;;;;;;23.50;29.41;101246.97;5027662;28;20041;-78
2023/07/11 02:10:54;;;;;;;4.40;1.88;;;;;;;23.48;29.43;101243.53;5029582;28;20056;-78
2023/07/11 02:13:23;;;;;;;2.85;1.50;;;;;;;23.48;29.55;101241.59;5025670;28;20037;-77
2023/07/11 02:15:51;;;;;;;2.85;1.50;;;;;;;23.46;29.48;101242.88;5028779;28;20051;-78
2023/07/11 02:18:19;;;;;;;2.97;1.60;;;;;;;23.43;29.28;101243.28;5027746;28;20073;-78
2023/07/11 02:20:47;;;;;;;2.92;1.63;;;;;;;23.41;29.57;101240.72;5029210;28;20520;-78
2023/07/11 02:23:16;;;;;;;3.20;1.58;;;;;;;23.39;29.62;101240.94;5029733;28;20161;-78
2023/07/11 02:25:44;;;;;;;3.75;1.50;;;;;;;23.36;29.76;101234.88;5032861;28;20045;-78
2023/07/11 02:28:12;;;;;;;3.70;1.90;;;;;;;23.34;29.60;101240.69;5035752;28;20423;-78
2023/07/11 02:30:42;;;;;;;3.67;1.67;;;;;;;23.34;29.58;101234.22;5032222;28;20353;-78
2023/07/11 02:33:10;;;;;;;3.40;1.70;;;;;;;23.29;29.65;101229.28;5031862;28;20107;-77
2023/07/11 02:35:38;;;;;;;4.00;1.98;;;;;;;23.27;29.63;101231.41;5024536;28;20034;-78
2023/07/11 02:38:06;;;;;;;2.95;1.60;;;;;;;23.25;29.67;101224.34;5028069;28;20762;-78
2023/07/11 02:40:34;;;;;;;3.15;1.80;;;;;;;23.21;29.74;101218.31;5028511;28;20045;-78
2023/07/11 02:43:02;;;;;;;3.58;1.90;;;;;;;23.19;29.83;101217.66;5027509;28;20045;-78
2023/07/11 02:45:30;;;;;;;3.83;1.80;;;;;;;23.17;30.01;101213.31;5028167;28;20133;-78
2023/07/11 02:47:59;;;;;;;4.10;1.83;;;;;;;23.16;30.07;101218.09;5023145;28;20534;-78
2023/07/11 02:50:27;;;;;;;3.45;1.70;;;;;;;23.13;29.88;101214.78;5034494;28;20053;-78
2023/07/11 02:52:55;;;;;;;4.10;1.65;;;;;;;23.11;29.91;101211.34;5050063;28;20053;-78
2023/07/11 02:55:23;;;;;;;2.92;1.85;;;;;;;23.08;30.07;101209.84;5035219;28;20056;-78
2023/07/11 02:57:51;;;;;;;4.22;2.03;;;;;;;23.05;30.21;101204.69;5026467;28;20073;-78
2023/07/11 03:00:19;;;;;;;3.22;1.80;;;;;;;23.03;30.15;101202.09;5033524;28;20076;-78
2023/07/11 03:02:47;;;;;;;4.72;2.00;;;;;;;23.01;30.32;101203.34;5029555;28;20065;-78
2023/07/11 03:05:17;;;;;;;3.38;1.80;;;;;;;23.01;30.55;101209.78;5033677;28;20512;-77
2023/07/11 03:07:44;;;;;;;3.85;1.80;;;;;;;22.96;30.40;101200.34;5029618;28;20420;-77
2023/07/11 03:10:12;;;;;;;2.90;1.63;;;;;;;22.94;29.95;101194.97;5031112;28;20045;-78
2023/07/11 03:12:41;;;;;;;2.90;1.65;;;;;;;22.92;30.33;101199.88;5030858;28;20041;-78
2023/07/11 03:15:09;;;;;;;3.85;1.70;;;;;;;22.90;30.30;101199.25;5029381;28;20092;-78
2023/07/11 03:17:38;;;;;;;3.88;1.85;;;;;;;22.89;30.66;101191.06;5046632;28;20046;-78
2023/07/11 03:20:06;;;;;;;4.15;1.80;;;;;;;22.88;30.36;101189.34;5040059;28;20114;-77
2023/07/11 03:22:35;;;;;;;4.18;1.85;;;;;;;22.87;30.37;101185.69;5024924;28;20109;-78
2023/07/11 03:25:04;;;;;;;2.72;1.60;;;;;;;22.84;30.36;101188.88;5032772;28;20050;-78
2023/07/11 03:27:32;;;;;;;3.38;1.65;;;;;;;22.83;30.61;101184.41;5037253;28;20092;-78
2023/07/11 03:30:00;;;;;;;4.15;1.92;;;;;;;22.81;30.44;101180.94;5025455;28;20073;-78
2023/07/11 03:32:28;;;;;;;3.83;1.73;;;;;;;22.80;30.55;101184.81;5039754;28;20049;-78
2023/07/11 03:34:56;;;;;;;5.15;2.17;;;;;;;22.80;30.51;101181.16;5037213;28;20404;-78
2023/07/11 03:37:30;;;;;;;4.25;1.90;;;;;;;22.79;30.62;101185.88;5039757;28;20041;-78
2023/07/11 03:40:00;;;;;;;3.90;1.90;;;;;;;22.79;30.49;101182.22;5037909;28;20037;-78
2023/07/11 03:42:28;;;;;;;3.58;1.75;;;;;;;22.77;30.38;101181.56;5036178;28;20047;-78
2023/07/11 03:44:56;;;;;;;4.57;2.08;;;;;;;22.74;30.62;101176.41;5036690;28;20042;-78
2023/07/11 03:47:24;;;;;;;3.42;1.73;;;;;;;22.73;30.71;101178.34;5039690;28;20041;-77
2023/07/11 03:49:52;;;;;;;4.47;2.00;;;;;;;22.72;30.77;101173.81;5037716;28;20042;-77
2023/07/11 03:52:20;;;;;;;2.97;1.90;;;;;;;22.72;30.70;101181.31;5045019;28;20060;-79
2023/07/11 03:54:48;;;;;;;3.88;1.90;;;;;;;22.71;30.72;101185.19;5037923;28;20074;-78
2023/07/11 03:57:17;;;;;;;3.60;1.80;;;;;;;22.71;30.60;101174.88;5053373;28;20045;-78
2023/07/11 03:59:46;;;;;;;3.60;1.90;;;;;;;22.68;30.62;101177.22;5038763;28;20049;-78
2023/07/11 04:02:14;;;;;;;3.30;1.80;;;;;;;22.66;30.53;101171.00;5030593;28;20046;-78
2023/07/11 04:04:43;;;;;;;4.80;2.03;;;;;;;22.66;30.89;101169.06;5035818;28;20049;-78
2023/07/11 04:07:11;;;;;;;4.55;1.98;;;;;;;22.64;30.75;101166.50;5037035;28;20047;-78
2023/07/11 04:09:40;;;;;;;3.38;1.83;;;;;;;22.64;30.77;101163.69;5033452;28;20161;-78
2023/07/11 04:12:09;;;;;;;4.05;1.98;;;;;;;22.63;30.93;101163.91;5034398;28;20041;-78
2023/07/11 04:14:39;;;;;;;3.72;1.80;;;;;;;22.63;31.02;101167.56;5030306;28;20053;-78
2023/07/11 04:17:07;;;;;;;3.63;1.95;;;;;;;22.61;30.52;101163.22;5034181;28;20045;-78
2023/07/11 04:19:35;;;;;;;3.72;1.70;;;;;;;22.61;31.02;101160.44;5052381;28;20037;-78
2023/07/11 04:22:03;;;;;;;3.38;2.10;;;;;;;22.61;30.68;101166.88;5035905;28;20073;-78
2023/07/11 04:24:31;;;;;;;3.17;1.63;;;;;;;22.61;30.90;101166.88;5032052;28;20046;-78
2023/07/11 04:26:59;;;;;;;3.65;1.73;;;;;;;22.61;30.93;101164.09;5043576;28;20037;-78
2023/07/11 04:29:27;;;;;;;3.88;2.03;;;;;;;22.62;31.19;101163.03;5029540;28;20120;-79
2023/07/11 04:31:56;;;;;;;4.00;1.77;;;;;;;22.66;30.82;101162.63;5048201;28;20424;-79
2023/07/11 04:34:24;;;;;;;3.67;1.80;;;;;;;22.64;31.09;101154.47;5033798;28;20060;-78
2023/07/11 04:36:52;;;;;;;4.03;1.83;;;;;;;22.66;30.99;101154.25;5034816;28;20635;-79
2023/07/11 04:39:20;;;;;;;4.05;1.70;;;;;;;22.66;30.84;101149.53;5034771;28;20065;-79
2023/07/11 04:41:48;;;;;;;3.33;1.90;;;;;;;22.67;31.16;101148.47;5039418;28;20064;-79
2023/07/11 04:44:17;;;;;;;3.30;1.73;;;;;;;22.69;31.14;101151.91;5033035;28;20125;-79
2023/07/11 04:46:45;;;;;;;2.97;1.65;;;;;;;22.69;30.81;101151.91;5035319;28;20053;-79
2023/07/11 04:49:14;;;;;;;3.83;2.00;;;;;;;22.72;30.98;101148.72;5036840;28;20107;-78
2023/07/11 04:51:42;;;;;;;3.15;1.88;;;;;;;22.69;30.84;101140.75;5038751;28;20065;-79
2023/07/11 04:54:10;;;;;;;4.85;1.73;;;;;;;22.70;30.84;101139.69;5032555;28;20151;-81
2023/07/11 04:56:40;;;;;;;3.67;1.80;;;;;;;22.73;31.16;101132.84;5031901;28;20072;-79
2023/07/11 04:59:08;;;;;;;3.00;1.58;;;;;;;22.72;31.22;101139.47;5033541;28;20037;-78
2023/07/11 05:01:36;;;;;;;3.08;1.98;;;;;;;22.72;31.28;101133.91;5032777;28;20095;-78
2023/07/11 05:04:04;;;;;;;2.53;1.58;;;;;;;22.73;31.11;101130.03;5019237;28;20584;-79
2023/07/11 05:06:33;;;;;;;6.07;2.20;;;;;;;22.75;31.14;101137.16;5040793;28;20093;-78
2023/07/11 05:09:01;;;;;;;3.42;1.95;;;;;;;22.74;31.18;101129.84;5040148;28;20250;-79
2023/07/11 05:11:29;;;;;;;4.32;1.92;;;;;;;22.76;31.27;101126.81;5020865;28;20164;-78
2023/07/11 05:13:57;;;;;;;3.20;1.80;;;;;;;22.78;31.58;101125.53;5018676;28;20053;-80
2023/07/11 05:16:28;;;;;;;3.45;1.80;;;;;;;22.83;31.47;101127.72;5020634;28;20455;-78
2023/07/11 05:18:57;;;;;;;3.35;1.85;;;;;;;22.89;31.68;101127.75;5020685;28;20071;-78
2023/07/11 05:21:26;;;;;;;4.18;2.20;;;;;;;22.97;31.56;101121.97;5044797;28;20144;-79
2023/07/11 05:23:56;;;;;;;3.95;1.92;;;;;;;23.08;31.52;101123.31;5031426;28;20064;-78
2023/07/11 05:26:24;;;;;;;3.70;2.10;;;;;;;23.17;31.60;101119.25;5027233;28;20048;-78
2023/07/11 05:28:52;;;;;;;3.20;1.73;;;;;;;23.30;31.36;101115.66;5030567;28;20091;-77
2023/07/11 05:31:20;;;;;;;4.43;1.88;;;;;;;23.41;31.35;101116.97;5032258;28;20080;-78
2023/07/11 05:33:48;;;;;;;3.97;2.00;;;;;;;23.54;31.26;101108.59;5030063;28;20447;-79
2023/07/11 05:36:25;;;;;;;3.92;2.00;;;;;;;23.67;31.29;101109.44;5018973;28;20044;-78
2023/07/11 05:38:56;;;;;;;4.10;2.05;;;;;;;23.82;31.00;101112.06;5021745;28;20057;-78
2023/07/11 05:41:24;;;;;;;4.03;2.08;;;;;;;23.93;30.96;101107.75;5037125;28;20053;-76
2023/07/11 05:43:52;;;;;;;4.07;2.08;;;;;;;24.04;30.90;101112.69;5037158;28;20046;-79
2023/07/11 05:46:19;;;;;;;5.10;1.90;;;;;;;24.13;30.76;101105.78;5024142;28;20524;-78
2023/07/11 05:48:47;;;;;;;3.30;2.00;;;;;;;24.25;30.71;101111.56;5025503;28;20037;-79
2023/07/11 05:51:17;;;;;;;3.05;2.00;;;;;;;24.36;30.45;101110.94;5048088;28;20041;-79
2023/07/11 05:53:46;;;;;;;4.68;2.28;;;;;;;24.45;30.40;101104.03;5048531;28;20136;-80
2023/07/11 05:56:16;;;;;;;4.30;1.95;;;;;;;24.56;30.29;101103.34;5024911;28;20053;-78
2023/07/11 05:58:45;;;;;;;4.25;2.10;;;;;;;24.62;30.15;101096.00;5029471;28;20092;-79
2023/07/11 06:01:14;;;;;;;5.93;2.10;;;;;;;24.69;30.18;101094.88;5019088;28;20069;-78
2023/07/11 06:03:45;;;;;;;4.95;2.30;;;;;;;24.75;29.85;101096.78;5033506;28;20044;-80
2023/07/11 06:06:18;;;;;;;4.18;2.20;;;;;;;24.81;30.20;101087.50;5039810;28;20041;-80
2023/07/11 06:08:47;;;;;;;3.63;2.15;;;;;;;24.87;30.16;101081.03;5028410;28;20037;-80
2023/07/11 06:11:16;;;;;;;3.83;2.03;;;;;;;24.96;30.05;101083.59;5032327;28;20508;-80
2023/07/11 06:13:44;;;;;;;5.43;1.83;;;;;;;24.99;29.90;101074.72;5028636;28;20072;-80
2023/07/11 06:16:15;;;;;;;3.85;2.10;;;;;;;25.07;29.85;101078.13;5031005;28;20065;-79
2023/07/11 06:18:43;;;;;;;4.22;2.40;;;;;;;25.09;29.95;101069.50;5047041;28;20041;-80
2023/07/11 06:21:12;;;;;;;5.07;2.40;;;;;;;25.13;29.75;101063.25;5030128;28;20380;-80
2023/07/11 06:23:40;;;;;;;4.35;2.13;;;;;;;25.17;30.07;101067.28;5043864;28;20037;-80
2023/07/11 06:26:10;;;;;;;3.72;2.00;;;;;;;25.24;29.59;101070.03;5032686;28;20052;-81
2023/07/11 06:28:39;;;;;;;3.35;2.20;;;;;;;25.28;29.76;101071.31;5031317;28;20036;-79
2023/07/11 06:31:07;;;;;;;6.25;2.28;;;;;;;25.31;29.99;101067.22;5030635;28;20068;-80
2023/07/11 06:33:36;;;;;;;4.63;2.08;;;;;;;25.34;29.71;101061.13;5029576;28;20065;-80
2023/07/11 06:36:08;;;;;;;3.88;1.80;;;;;;;25.39;29.66;101058.53;5029512;28;20045;-80
2023/07/11 06:38:36;;;;;;;4.53;1.95;;;;;;;25.40;29.54;101063.88;5022685;28;20461;-80
2023/07/11 06:41:05;;;;;;;3.65;2.15;;;;;;;25.43;29.52;101060.63;5022163;28;20064;-80
2023/07/11 06:43:33;;;;;;;4.70;2.00;;;;;;;25.46;29.64;101060.19;5028811;28;20398;-80
2023/07/11 06:46:03;;;;;;;3.47;1.98;;;;;;;25.53;29.48;101057.38;5031747;28;21334;-79
2023/07/11 06:48:33;;;;;;;4.65;2.10;;;;;;;25.54;29.62;101047.88;5027398;28;20688;-80
2023/07/11 06:51:03;;;;;;;4.35;2.10;;;;;;;25.59;29.40;101057.28;5031260;28;20067;-81
2023/07/11 06:53:34;;;;;;;5.20;2.10;;;;;;;25.61;29.40;101046.72;5035571;28;20120;-80
2023/07/11 06:56:03;;;;;;;2.78;1.70;;;;;;;25.67;29.38;101052.47;5041407;28;20296;-81
2023/07/11 06:58:32;;;;;;;3.70;1.83;;;;;;;25.72;29.54;101039.47;5025369;28;20046;-80
2023/07/11 07:01:02;;;;;;;3.80;2.30;;;;;;;25.77;29.47;101044.41;5029543;28;20057;-81
2023/07/11 07:03:33;;;;;;;3.13;2.08;;;;;;;25.82;29.20;101031.41;5025886;28;20042;-80
2023/07/11 07:06:03;;;;;;;3.78;1.90;;;;;;;25.86;29.30;101034.63;5030208;28;20045;-80
2023/07/11 07:08:31;;;;;;;4.63;2.00;;;;;;;25.90;29.07;101036.72;5022834;28;20053;-80
2023/07/11 07:10:59;;;;;;;2.75;1.85;;;;;;;25.94;29.27;101032.38;5033585;28;20083;-79
2023/07/11 07:13:27;;;;;;;3.47;2.20;;;;;;;25.99;29.15;101029.72;5031757;28;20042;-79
2023/07/11 07:15:57;;;;;;;4.78;2.08;;;;;;;26.06;29.02;101028.78;5028932;28;20136;-77
2023/07/11 07:18:27;;;;;;;3.50;2.20;;;;;;;26.11;29.04;101029.84;5033415;28;20044;-80
2023/07/11 07:20:56;;;;;;;3.83;2.03;;;;;;;26.19;29.09;101037.09;5072348;23;20451;-63
2023/07/11 07:23:26;;;;;;;5.28;2.00;;;;;;;26.22;28.78;101029.06;5013002;28;20046;-62
2023/07/11 07:25:57;;;;;;;4.88;2.28;;;;;;;26.31;28.93;101022.03;5012111;28;20046;-63
2023/07/11 07:28:27;;;;;;;4.32;2.00;;;;;;;26.36;28.79;101025.03;5014489;28;20042;-62
2023/07/11 07:30:56;;;;;;;4.65;1.75;;;;;;;26.45;28.78;101019.09;5013064;28;20050;-64
2023/07/11 07:33:26;;;;;;;3.47;2.08;;;;;;;26.52;29.01;101019.84;5013250;28;20098;-65
2023/07/11 07:36:00;;;;;;;4.35;2.15;;;;;;;26.62;28.59;101023.00;5014331;28;20042;-65
2023/07/11 07:38:29;;;;;;;3.90;2.15;;;;;;;26.65;28.88;101014.94;5012493;28;20500;-65
2023/07/11 07:40:59;;;;;;;3.65;2.00;;;;;;;26.74;28.53;101016.31;5012903;28;20056;-64
2023/07/11 07:43:28;;;;;;;6.50;2.25;;;;;;;26.83;28.42;101014.03;5013172;28;20061;-62
2023/07/11 07:45:58;;;;;;;3.92;2.03;;;;;;;26.91;28.50;101012.84;5012962;28;20582;-65
2023/07/11 07:48:27;;;;;;;4.60;2.33;;;;;;;26.97;28.19;101007.13;5012420;28;20050;-63
2023/07/11 07:51:03;;;;;;;3.88;1.85;;;;;;;27.08;27.86;101005.44;5012993;28;20478;-64
2023/07/11 07:53:33;;;;;;;3.80;2.10;;;;;;;27.12;27.89;101009.50;5015212;28;20042;-65
2023/07/11 07:56:03;;;;;;;3.95;2.25;;;;;;;27.19;28.16;100998.19;5006375;28;20253;-64
2023/07/11 07:58:32;;;;;;;3.83;2.10;;;;;;;27.26;27.91;101001.75;5002415;28;20468;-65
2023/07/11 08:01:11;;;;;;;4.30;1.77;;;;;;;27.35;27.77;100995.53;4992706;28;20043;-72
2023/07/11 08:03:40;;;;;;;4.95;2.13;;;;;;;27.44;28.02;100994.06;5005181;28;20117;-74
2023/07/11 08:06:12;;;;;;;3.50;1.90;;;;;;;27.56;27.97;100998.84;5007373;28;20085;-74
2023/07/11 08:08:45;;;;;;;4.25;2.00;;;;;;;27.64;27.91;100992.84;5005191;28;20046;-74
2023/07/11 08:11:13;;;;;;;3.80;2.10;;;;;;;27.73;28.17;100995.09;4998604;28;20041;-74
2023/07/11 08:13:41;;;;;;;3.55;2.08;;;;;;;27.83;28.17;100992.53;5002978;28;20043;-74
2023/07/11 08:16:12;;;;;;;3.42;1.98;;;;;;;27.92;28.32;100995.81;5016872;28;20053;-74
2023/07/11 08:18:57;;;;;;;4.18;1.90;;;;;;;28.05;28.05;100991.88;5000090;28;20405;-74
2023/07/11 08:21:26;;;;;;;3.47;2.13;;;;;;;28.19;27.48;100984.88;4998540;28;20433;-74
2023/07/11 08:23:54;;;;;;;5.72;1.95;;;;;;;28.28;27.56;100980.59;5000598;28;20050;-74
2023/07/11 08:26:23;;;;;;;3.80;2.00;;;;;;;28.39;27.22;100985.34;4997052;28;20038;-74
2023/07/11 08:28:51;;;;;;;5.05;2.10;;;;;;;28.49;27.02;100984.69;5002139;28;20084;-74
2023/07/11 08:31:20;;;;;;;4.65;2.00;;;;;;;28.60;26.58;100981.00;4994573;28;20056;-74
2023/07/11 08:33:48;;;;;;;3.58;2.00;;;;;;;28.69;26.91;100979.44;4996817;28;20521;-75
2023/07/11 08:36:16;;;;;;;3.22;2.08;;;;;;;28.81;26.93;100973.81;4997489;28;20042;-74
2023/07/11 08:38:47;;;;;;;3.72;2.00;;;;;;;28.93;26.18;100975.44;5006680;28;20069;-74
2023/07/11 08:41:26;;;;;;;2.70;1.80;;;;;;;29.05;25.82;100964.13;4996495;28;20085;-74
2023/07/11 08:44:10;;;;;;;4.32;1.92;;;;;;;29.14;26.49;100968.22;4998422;28;20116;-73
2023/07/11 08:46:47;;;;;;;3.55;1.92;;;;;;;29.26;25.70;100965.38;5003513;28;20046;-73
2023/07/11 08:49:21;;;;;;;4.60;1.92;;;;;;;29.36;26.13;100965.50;5002310;28;20042;-74
2023/07/11 08:51:54;;;;;;;3.58;2.20;;;;;;;29.47;26.09;100966.53;4999124;28;20048;-74
2023/07/11 08:54:29;;;;;;;3.60;2.15;;;;;;;29.57;25.74;100956.28;4992739;28;20398;-74
2023/07/11 08:56:59;;;;;;;3.30;1.63;;;;;;;29.63;25.45;100952.41;4993206;28;20516;-74
2023/07/11 08:59:42;;;;;;;4.00;2.00;;;;;;;29.77;25.41;100955.75;4996503;28;20042;-75
2023/07/11 09:02:29;;;;;;;4.15;1.80;;;;;;;29.86;25.36;100948.56;5007893;28;20523;-74
2023/07/11 09:04:58;;;;;;;4.70;2.30;;;;;;;29.93;25.44;100948.34;4995048;28;20047;-74
2023/07/11 09:07:36;;;;;;;2.97;1.80;;;;;;;30.05;24.71;100947.13;4995262;28;20515;-73
2023/07/11 09:10:28;;;;;;;4.25;2.08;;;;;;;30.14;24.18;100946.69;5009071;28;20088;-73
2023/07/11 09:13:35;;;;;;;4.47;2.13;;;;;;;30.22;24.75;100947.06;5008427;28;20441;-73
2023/07/11 09:16:09;;;;;;;3.45;1.80;;;;;;;30.28;24.30;100940.41;4998004;28;20038;-72
2023/07/11 09:18:45;;;;;;;5.95;1.95;;;;;;;30.33;24.06;100953.75;4990010;28;20046;-73
2023/07/11 09:21:18;;;;;;;4.40;2.00;;;;;;;30.33;23.60;100937.63;4991327;28;20046;-73
2023/07/11 09:23:54;;;;;;;5.47;2.03;;;;;;;30.34;23.19;100933.69;5012832;28;20560;-73
2023/07/11 09:26:35;;;;;;;3.95;1.85;;;;;;;30.32;23.44;100921.81;5006340;28;20057;-73
2023/07/11 09:29:06;;;;;;;3.88;1.83;;;;;;;30.30;23.45;100926.88;5001119;28;20048;-73
2023/07/11 09:31:50;;;;;;;4.53;1.90;;;;;;;30.28;23.16;100922.59;4998250;28;20117;-73
2023/07/11 09:34:23;;;;;;;3.47;1.70;;;;;;;30.28;23.35;100920.63;4992459;28;20046;-73
2023/07/11 09:36:52;;;;;;;4.32;1.88;;;;;;;30.27;23.51;100918.06;5019660;28;20050;-74
2023/07/11 09:39:29;;;;;;;5.60;2.38;;;;;;;30.32;22.97;100912.50;5006235;28;20069;-74
2023/07/11 09:42:04;;;;;;;4.93;1.70;;;;;;;30.33;23.08;100908.56;5007870;28;20050;-74
2023/07/11 09:44:33;;;;;;;3.80;1.92;;;;;;;30.32;23.40;100909.69;5020524;28;20097;-75
2023/07/11 09:47:13;;;;;;;4.00;1.60;;;;;;;30.38;23.54;100909.47;4997732;28;20129;-74
2023/07/11 09:49:42;;;;;;;5.22;2.10;;;;;;;30.37;23.61;100902.09;4996670;28;20394;-73
2023/07/11 09:52:14;;;;;;;3.15;1.80;;;;;;;30.42;23.97;100901.28;4999751;28;20417;-74
2023/07/11 09:54:46;;;;;;;;;;;;;;;30.13;24.13;100897.84;5011849;28;20074;-73
2023/07/11 09:57:19;;;;;;;3.35;1.80;;;;;;;30.47;24.24;100892.91;5003384;28;20053;-73
2023/07/11 09:59:58;;;;;;;4.57;1.98;;;;;;;30.56;23.67;100880.00;4989535;28;20066;-73
2023/07/11 10:02:46;;;;;;;2.67;1.77;;;;;;;30.57;23.48;100884.53;4990573;28;20046;-73
2023/07/11 10:05:15;;;;;;;4.13;1.92;;;;;;;30.65;23.50;100886.03;4992234;28;20050;-73
2023/07/11 10:07:43;;;;;;;3.95;2.10;;;;;;;30.69;23.37;100882.38;5008099;28;20060;-73
2023/07/11 10:10:14;;;;;;;3.28;2.00;;;;;;;30.80;23.33;100883.38;5008421;28;20042;-72
2023/07/11 10:12:45;;;;;;;3.67;2.00;;;;;;;30.83;23.72;100875.19;4995222;28;20516;-73
2023/07/11 10:15:16;;;;;;;3.30;1.77;;;;;;;30.93;22.78;100879.22;5000081;28;20042;-74
2023/07/11 10:17:45;;;;;;;3.58;2.05;;;;;;;30.97;23.46;100867.13;5009747;28;20053;-75
2023/07/11 10:20:17;;;;;;;2.63;1.67;;;;;;;31.07;23.13;100864.41;5009341;28;20056;-71
2023/07/11 10:22:49;;;;;;;3.47;2.13;;;;;;;31.15;23.00;100860.22;5009609;28;20050;-74
2023/07/11 10:25:20;;;;;;;3.93;2.17;;;;;;;31.20;22.73;100854.63;4995501;28;20045;-74
2023/07/11 10:27:55;;;;;;;3.42;1.88;;;;;;;31.31;22.10;100855.53;4989557;28;20050;-73
2023/07/11 10:30:26;;;;;;;3.20;1.92;;;;;;;31.40;22.52;100866.06;4988738;28;20042;-73
2023/07/11 10:32:56;;;;;;;;;;;;;;;31.12;22.84;100855.94;5004946;28;20512;-73
2023/07/11 10:35:40;;;;;;;2.88;1.80;;;;;;;31.49;22.12;100853.09;4989208;28;19925;-74
2023/07/11 10:38:19;;;;;;;3.35;1.80;;;;;;;31.64;21.91;100848.66;4989059;28;20057;-70
2023/07/11 10:40:50;;;;;;;3.33;1.70;;;;;;;31.70;21.38;100853.25;4990314;28;20043;-74
2023/07/11 10:43:26;;;;;;;4.33;2.00;;;;;;;31.76;20.91;100854.97;4989790;28;20525;-74
2023/07/11 10:46:01;;;;;;;4.05;1.90;;;;;;;31.80;21.42;100851.31;4989246;28;20050;-74
2023/07/11 10:48:39;;;;;;;5.10;2.03;;;;;;;31.86;20.53;100847.38;4989185;28;20054;-71
2023/07/11 10:51:10;;;;;;;3.85;1.75;;;;;;;31.89;21.46;100841.19;4988650;28;20054;-73
2023/07/11 10:53:43;;;;;;;2.78;1.83;;;;;;;31.93;20.83;100830.13;4989545;28;20291;-74
2023/07/11 10:56:18;;;;;;;3.70;2.35;;;;;;;31.99;20.85;100837.50;4989295;28;20050;-73
2023/07/11 10:58:49;;;;;;;4.38;2.60;;;;;;;32.04;20.63;100833.84;4993308;28;20535;-74
2023/07/11 11:01:29;;;;;;;4.72;2.55;;;;;;;32.10;20.99;100822.25;5008763;28;20068;-73
2023/07/11 11:04:07;;;;;;;3.75;2.53;;;;;;;32.15;20.10;100818.63;4989283;28;20058;-74
2023/07/11 11:06:53;;;;;;;3.92;2.40;;;;;;;32.20;20.79;100819.50;4988495;28;20054;-71
2023/07/11 11:09:35;;;;;;;4.80;2.70;;;;;;;32.26;20.19;100823.19;4988686;28;20130;-72
2023/07/11 11:12:15;;;;;;;5.00;3.10;;;;;;;32.31;20.04;100818.38;4989436;28;20050;-74
2023/07/11 11:14:52;;;;;;;5.93;3.25;;;;;;;32.38;19.45;100814.44;5001035;28;20068;-74
2023/07/11 11:17:34;;;;;;;4.40;3.40;;;;;;;32.44;19.71;100801.97;5005450;28;20042;-74
2023/07/11 11:20:12;;;;;;;4.53;3.38;;;;;;;32.48;19.63;100806.78;4989123;28;20056;-72
2023/07/11 11:22:53;;;;;;;4.22;3.08;;;;;;;32.53;19.85;100791.78;5004853;28;20035;-73
2023/07/11 11:25:27;;;;;;;6.45;3.55;;;;;;;32.57;19.62;100790.06;4988347;28;20106;-73
2023/07/11 11:28:08;;;;;;;4.47;3.45;;;;;;;32.62;19.76;100781.63;4991420;28;20717;-74
2023/07/11 11:30:48;;;;;;;5.05;3.40;;;;;;;32.68;19.93;100780.47;5003059;28;20042;-74
2023/07/11 11:33:30;;;;;;;5.07;3.00;;;;;;;32.71;19.77;100785.59;4991669;28;20081;-73
2023/07/11 11:36:08;;;;;;;4.05;3.03;;;;;;;32.76;19.50;100779.91;5008263;28;20046;-74
2023/07/11 11:38:52;;;;;;;5.53;3.65;;;;;;;32.82;19.43;100775.06;5000962;28;20048;-74
2023/07/11 11:41:29;;;;;;;5.20;3.63;;;;;;;32.86;19.57;100776.22;4988524;28;20053;-74
2023/07/11 11:43:57;;;;;;;5.03;3.40;;;;;;;32.88;19.51;100769.13;4988802;28;20049;-73